Time;durP1;ratioP1;P1;durP2;ratioP2;P2;SDS_P1;SDS_P2;PMS_P1;PMS_P2;Temp;Humidity;BMP_temperature;BMP_pressure;BME280_temperature;BME280_humidity;BME280_pressure;Samples;Min_cycle;Max_cycle;Signal;HPM_P1;HPM_P2
2024/03/05 00:00:42;;;;;;;23.08;16.50;;;;;;;;;;5097155;28;20030;-65
2024/03/05 00:03:07;;;;;;;21.02;16.27;;;;;;;;;;5097241;28;20456;-66
2024/03/05 00:05:33;;;;;;;20.42;15.82;;;;;;;;;;5079265;28;20074;-66
2024/03/05 00:07:59;;;;;;;23.85;17.20;;;;;;;;;;5097347;28;20032;-66
2024/03/05 00:10:28;;;;;;;22.13;16.27;;;;;;;;;;5107379;22;20102;-68
2024/03/05 00:12:53;;;;;;;22.70;17.23;;;;;;;;;;5078839;28;20093;-67
2024/03/05 00:15:19;;;;;;;21.48;16.08;;;;;;;;;;5097392;28;20020;-68
2024/03/05 00:17:44;;;;;;;22.75;15.90;;;;;;;;;;5097423;28;20440;-68
2024/03/05 00:20:18;;;;;;;21.65;16.40;;;;;;;;;;5095570;28;20027;-68
2024/03/05 00:22:46;;;;;;;21.75;15.45;;;;;;;;;;5095601;28;20100;-67
2024/03/05 00:25:12;;;;;;;20.95;14.43;;;;;;;;;;5078507;28;20115;-67
2024/03/05 00:27:38;;;;;;;22.25;14.93;;;;;;;;;;5097108;28;20185;-68
2024/03/05 00:30:08;;;;;;;21.92;15.38;;;;;;;;;;5095704;28;20032;-67
2024/03/05 00:32:39;;;;;;;21.73;14.45;;;;;;;;;;5096538;28;20111;-67
2024/03/05 00:35:09;;;;;;;17.63;13.38;;;;;;;;;;5110718;22;20406;-67
2024/03/05 00:37:35;;;;;;;18.58;13.60;;;;;;;;;;5096589;28;20424;-63
2024/03/05 00:40:12;;;;;;;21.08;15.35;;;;;;;;;;5096517;28;20018;-63
2024/03/05 00:42:37;;;;;;;18.63;14.82;;;;;;;;;;5096189;28;20515;-62
2024/03/05 00:52:24;;;;;;;15.90;13.93;;;;;;;;;;5081176;22;20060;-63
2024/03/05 00:54:49;;;;;;;18.52;13.88;;;;;;;;;;5075590;28;20055;-62
2024/03/05 00:57:15;;;;;;;19.05;13.88;;;;;;;;;;5075824;28;20460;-62
2024/03/05 00:59:40;;;;;;;16.52;12.98;;;;;;;;;;5076068;28;20115;-62
2024/03/05 01:02:06;;;;;;;17.88;13.50;;;;;;;;;;5074493;28;20043;-62
2024/03/05 01:04:31;;;;;;;17.00;12.07;;;;;;;;;;5075735;28;20112;-62
2024/03/05 01:06:57;;;;;;;15.80;11.40;;;;;;;;;;5075956;28;20032;-62
2024/03/05 01:09:24;;;;;;;15.50;11.48;;;;;;;;;;5075558;28;20461;-62
2024/03/05 01:11:52;;;;;;;14.35;10.23;;;;;;;;;;5057650;28;20039;-62
2024/03/05 01:14:18;;;;;;;20.40;12.57;;;;;;;;;;5075938;28;20028;-62
2024/03/05 01:16:43;;;;;;;17.20;13.13;;;;;;;;;;5075726;28;20029;-62
2024/03/05 01:19:12;;;;;;;15.20;10.75;;;;;;;;;;5075722;28;20044;-62
2024/03/05 01:21:37;;;;;;;14.80;11.45;;;;;;;;;;5075366;28;20020;-63
2024/03/05 01:24:03;;;;;;;16.00;11.57;;;;;;;;;;5075225;28;20556;-63
2024/03/05 01:26:28;;;;;;;15.30;12.05;;;;;;;;;;5075827;28;20045;-63
2024/03/05 01:28:55;;;;;;;14.00;10.98;;;;;;;;;;5075337;28;20534;-64
2024/03/05 01:31:21;;;;;;;14.13;11.05;;;;;;;;;;5056456;28;20025;-65
2024/03/05 01:33:46;;;;;;;13.43;10.18;;;;;;;;;;5074037;28;20060;-63
2024/03/05 01:36:15;;;;;;;12.55;9.88;;;;;;;;;;5074792;28;20465;-63
2024/03/05 01:38:41;;;;;;;13.93;11.18;;;;;;;;;;5073599;28;20033;-64
2024/03/05 01:41:07;;;;;;;12.10;9.48;;;;;;;;;;5074908;28;20024;-64
2024/03/05 01:43:32;;;;;;;13.48;11.13;;;;;;;;;;5073473;28;20028;-64
2024/03/05 01:45:58;;;;;;;11.68;9.73;;;;;;;;;;5073863;28;20103;-65
2024/03/05 01:48:23;;;;;;;10.15;8.35;;;;;;;;;;5073057;28;20358;-62
2024/03/05 01:50:49;;;;;;;11.73;9.85;;;;;;;;;;5074145;28;20052;-63
2024/03/05 01:53:15;;;;;;;10.98;7.95;;;;;;;;;;5055658;28;20044;-65
2024/03/05 01:55:42;;;;;;;13.23;10.73;;;;;;;;;;5074048;28;20035;-64
2024/03/05 01:58:09;;;;;;;13.55;9.85;;;;;;;;;;5074644;28;20028;-62
2024/03/05 02:00:36;;;;;;;12.07;9.32;;;;;;;;;;5072950;28;20036;-62
2024/03/05 02:03:01;;;;;;;11.65;9.13;;;;;;;;;;5073299;28;20024;-62
2024/03/05 02:05:27;;;;;;;11.20;8.90;;;;;;;;;;5073232;28;20030;-61
2024/03/05 02:07:53;;;;;;;11.10;9.50;;;;;;;;;;5073169;28;20366;-61
2024/03/05 02:10:19;;;;;;;12.02;8.45;;;;;;;;;;5074997;28;20086;-61
2024/03/05 02:12:44;;;;;;;10.57;7.55;;;;;;;;;;5073445;28;20036;-62
2024/03/05 02:15:13;;;;;;;9.68;7.82;;;;;;;;;;5074778;28;20445;-62
2024/03/05 02:17:42;;;;;;;10.23;8.05;;;;;;;;;;5074553;28;20031;-62
2024/03/05 02:20:13;;;;;;;9.20;7.63;;;;;;;;;;5074816;28;20078;-62
2024/03/05 02:22:39;;;;;;;9.93;8.05;;;;;;;;;;5074517;28;20029;-62
2024/03/05 02:25:05;;;;;;;9.82;7.07;;;;;;;;;;5072797;28;20036;-62
2024/03/05 02:27:31;;;;;;;7.38;6.63;;;;;;;;;;5074412;28;20037;-64
2024/03/05 02:29:57;;;;;;;11.63;7.90;;;;;;;;;;5072927;28;20376;-61
2024/03/05 02:32:23;;;;;;;11.13;7.25;;;;;;;;;;5072777;28;20043;-63
2024/03/05 02:34:52;;;;;;;10.63;7.32;;;;;;;;;;5072661;28;20029;-63
2024/03/05 02:37:18;;;;;;;10.63;7.73;;;;;;;;;;5074282;28;20550;-63
2024/03/05 02:39:43;;;;;;;8.75;7.00;;;;;;;;;;5072969;28;20033;-63
2024/03/05 02:42:09;;;;;;;8.57;7.32;;;;;;;;;;5074148;28;20040;-63
2024/03/05 02:44:35;;;;;;;7.32;6.55;;;;;;;;;;5073860;28;20408;-63
2024/03/05 02:47:02;;;;;;;8.35;6.68;;;;;;;;;;5073216;28;20040;-63
2024/03/05 02:49:28;;;;;;;8.40;6.85;;;;;;;;;;5073119;28;20036;-63
2024/03/05 02:51:54;;;;;;;7.30;6.60;;;;;;;;;;5073161;28;20387;-62
2024/03/05 02:54:21;;;;;;;8.63;6.95;;;;;;;;;;5074220;28;20028;-63
2024/03/05 02:56:52;;;;;;;8.93;7.57;;;;;;;;;;5100225;22;20135;-65
2024/03/05 02:59:18;;;;;;;8.77;6.97;;;;;;;;;;5073882;28;20051;-65
2024/03/05 03:01:47;;;;;;;8.18;7.13;;;;;;;;;;5074077;28;20016;-65
2024/03/05 03:04:13;;;;;;;7.45;6.68;;;;;;;;;;5075657;28;20040;-65
2024/03/05 03:06:47;;;;;;;8.57;6.75;;;;;;;;;;5093943;28;20036;-64
2024/03/05 03:09:12;;;;;;;7.95;6.72;;;;;;;;;;5094403;28;20024;-65
2024/03/05 03:11:41;;;;;;;10.68;6.82;;;;;;;;;;5075776;28;20348;-65
2024/03/05 03:14:07;;;;;;;6.78;6.00;;;;;;;;;;5094340;28;20060;-64
2024/03/05 03:16:33;;;;;;;5.97;5.47;;;;;;;;;;5094002;28;20024;-65
2024/03/05 03:18:59;;;;;;;5.20;4.70;;;;;;;;;;5075979;28;20085;-65
2024/03/05 03:21:26;;;;;;;5.95;5.35;;;;;;;;;;5094035;28;20028;-64
2024/03/05 03:23:51;;;;;;;5.32;4.88;;;;;;;;;;5093683;28;20038;-65
2024/03/05 03:26:17;;;;;;;5.45;4.78;;;;;;;;;;5094169;28;20024;-64
2024/03/05 03:28:42;;;;;;;5.45;4.95;;;;;;;;;;5093490;28;20411;-64
2024/03/05 03:31:11;;;;;;;5.53;5.03;;;;;;;;;;5093919;28;20028;-64
2024/03/05 03:33:38;;;;;;;5.30;4.63;;;;;;;;;;5093677;28;20104;-66
2024/03/05 03:36:03;;;;;;;5.97;5.43;;;;;;;;;;5076002;28;20028;-66
2024/03/05 03:38:29;;;;;;;4.78;4.38;;;;;;;;;;5093344;28;20035;-66
2024/03/05 03:40:54;;;;;;;4.68;4.38;;;;;;;;;;5093757;28;20067;-66
2024/03/05 03:43:20;;;;;;;4.65;4.35;;;;;;;;;;5093843;28;20032;-66
2024/03/05 03:45:45;;;;;;;4.97;4.60;;;;;;;;;;5093793;28;20032;-66
2024/03/05 03:48:11;;;;;;;5.15;4.70;;;;;;;;;;5094080;28;20066;-66
2024/03/05 03:50:37;;;;;;;6.18;5.57;;;;;;;;;;5093624;28;20078;-65
2024/03/05 03:53:04;;;;;;;7.63;5.70;;;;;;;;;;5093218;28;20022;-65
2024/03/05 03:55:30;;;;;;;15.02;11.15;;;;;;;;;;5094865;28;20355;-66
2024/03/05 03:57:55;;;;;;;7.53;6.68;;;;;;;;;;5095107;28;20044;-67
2024/03/05 04:00:23;;;;;;;5.90;5.38;;;;;;;;;;5077172;28;20028;-65
2024/03/05 04:02:49;;;;;;;7.45;5.68;;;;;;;;;;5093070;28;20522;-64
2024/03/05 04:05:16;;;;;;;7.60;5.88;;;;;;;;;;5093631;28;20075;-64
2024/03/05 04:07:42;;;;;;;6.40;5.80;;;;;;;;;;5093968;28;20074;-62
2024/03/05 04:10:10;;;;;;;5.95;5.32;;;;;;;;;;5106801;22;20558;-64
2024/03/05 04:12:36;;;;;;;13.13;8.18;;;;;;;;;;5074513;28;20035;-64
2024/03/05 04:15:04;;;;;;;91.18;35.33;;;;;;;;;;5075193;28;20028;-64
2024/03/05 04:17:30;;;;;;;107.05;50.00;;;;;;;;;;5077675;28;20027;-64
2024/03/05 04:19:58;;;;;;;42.88;23.88;;;;;;;;;;5079089;28;20371;-65
2024/03/05 04:22:23;;;;;;;18.25;10.75;;;;;;;;;;5096918;28;20031;-66
2024/03/05 04:24:58;;;;;;;43.17;22.70;;;;;;;;;;5097052;28;20027;-65
2024/03/05 04:27:24;;;;;;;30.50;18.38;;;;;;;;;;5095894;28;20030;-64
2024/03/05 04:29:53;;;;;;;14.68;10.32;;;;;;;;;;5078798;28;20118;-64
2024/03/05 04:32:20;;;;;;;6.00;5.50;;;;;;;;;;5096674;28;20032;-66
2024/03/05 04:34:50;;;;;;;6.10;5.50;;;;;;;;;;5077861;28;20012;-66
2024/03/05 04:37:18;;;;;;;6.60;5.93;;;;;;;;;;5096781;28;20078;-66
2024/03/05 04:39:46;;;;;;;6.45;5.85;;;;;;;;;;5096873;28;20028;-67
2024/03/05 04:42:11;;;;;;;7.13;5.78;;;;;;;;;;5079074;28;20055;-68
2024/03/05 04:44:41;;;;;;;6.75;5.85;;;;;;;;;;5096743;28;20422;-68
2024/03/05 04:47:06;;;;;;;5.78;5.25;;;;;;;;;;5096291;28;20106;-68
2024/03/05 04:49:32;;;;;;;6.80;5.05;;;;;;;;;;5095737;28;20150;-67
2024/03/05 04:51:57;;;;;;;6.20;5.60;;;;;;;;;;5077217;28;20024;-67
2024/03/05 04:54:22;;;;;;;13.15;10.57;;;;;;;;;;5077803;28;20036;-67
2024/03/05 04:56:49;;;;;;;8.73;7.82;;;;;;;;;;5095275;28;20074;-66
2024/03/05 04:59:15;;;;;;;7.55;6.80;;;;;;;;;;5076429;28;20043;-66
2024/03/05 05:01:40;;;;;;;7.78;6.97;;;;;;;;;;5076963;28;20032;-66
2024/03/05 05:04:06;;;;;;;7.93;5.72;;;;;;;;;;5095195;28;20054;-65
2024/03/05 05:06:32;;;;;;;23.00;15.52;;;;;;;;;;5094956;28;20074;-67
2024/03/05 05:08:58;;;;;;;9.43;8.20;;;;;;;;;;5076837;28;20035;-67
2024/03/05 05:11:23;;;;;;;12.63;10.02;;;;;;;;;;5095966;28;20391;-67
2024/03/05 05:13:49;;;;;;;11.30;8.35;;;;;;;;;;5096426;28;20363;-68
2024/03/05 05:16:15;;;;;;;8.20;7.40;;;;;;;;;;5096143;28;20088;-66
2024/03/05 05:18:40;;;;;;;9.75;8.68;;;;;;;;;;5096081;28;20028;-67
2024/03/05 05:21:09;;;;;;;5.47;5.00;;;;;;;;;;5077790;28;20032;-66
2024/03/05 05:23:34;;;;;;;4.68;4.28;;;;;;;;;;5096053;28;20035;-65
2024/03/05 05:26:00;;;;;;;3.75;3.45;;;;;;;;;;5078008;28;20024;-65
2024/03/05 05:28:25;;;;;;;4.63;4.25;;;;;;;;;;5094650;28;20032;-65
2024/03/05 05:30:51;;;;;;;4.60;4.20;;;;;;;;;;5111508;28;20027;-65
2024/03/05 05:33:17;;;;;;;4.75;4.35;;;;;;;;;;5060806;28;20028;-65
2024/03/05 05:35:42;;;;;;;5.13;4.72;;;;;;;;;;5095854;28;20052;-67
2024/03/05 05:38:10;;;;;;;5.97;5.38;;;;;;;;;;5077412;28;20111;-64
2024/03/05 05:40:36;;;;;;;6.15;5.55;;;;;;;;;;5095541;28;20372;-64
2024/03/05 05:43:01;;;;;;;7.22;6.53;;;;;;;;;;5095539;28;20032;-64
2024/03/05 05:45:27;;;;;;;7.10;6.38;;;;;;;;;;5095885;28;20435;-64
2024/03/05 05:47:53;;;;;;;6.78;6.07;;;;;;;;;;5095678;28;20032;-64
2024/03/05 05:50:22;;;;;;;7.47;6.05;;;;;;;;;;5095518;28;20057;-64
2024/03/05 05:52:49;;;;;;;8.32;6.47;;;;;;;;;;5095689;28;20028;-64
2024/03/05 05:55:15;;;;;;;7.75;7.00;;;;;;;;;;5077227;28;20020;-64
2024/03/05 05:57:47;;;;;;;9.60;7.95;;;;;;;;;;5110643;28;20020;-64
2024/03/05 06:00:31;;;;;;;9.48;7.75;;;;;;;;;;5095598;28;20028;-65
2024/03/05 06:02:57;;;;;;;11.13;8.98;;;;;;;;;;5076947;28;20055;-64
2024/03/05 06:05:26;;;;;;;14.88;9.88;;;;;;;;;;5094695;28;20036;-64
2024/03/05 06:07:52;;;;;;;12.43;9.85;;;;;;;;;;5095314;28;20028;-66
2024/03/05 06:10:18;;;;;;;14.52;9.88;;;;;;;;;;5095114;28;20051;-66
2024/03/05 06:12:45;;;;;;;15.80;10.38;;;;;;;;;;5094948;28;20032;-66
2024/03/05 06:15:11;;;;;;;14.88;9.55;;;;;;;;;;5094957;28;20372;-65
2024/03/05 06:17:38;;;;;;;14.48;8.88;;;;;;;;;;5094781;28;20017;-65
2024/03/05 06:20:05;;;;;;;13.80;10.02;;;;;;;;;;5094558;28;20067;-65
2024/03/05 06:22:31;;;;;;;15.73;11.13;;;;;;;;;;5094401;28;20028;-65
2024/03/05 06:24:57;;;;;;;10.68;8.65;;;;;;;;;;5094113;28;20051;-65
2024/03/05 06:27:22;;;;;;;10.82;8.45;;;;;;;;;;5093171;28;20537;-65
2024/03/05 06:29:48;;;;;;;11.45;8.65;;;;;;;;;;5093103;28;20063;-68
2024/03/05 06:32:13;;;;;;;12.23;9.13;;;;;;;;;;5075840;28;20026;-65
2024/03/05 06:34:39;;;;;;;12.05;8.48;;;;;;;;;;5093360;28;20035;-65
2024/03/05 06:37:04;;;;;;;11.80;9.13;;;;;;;;;;5093358;28;20020;-65
2024/03/05 06:39:30;;;;;;;16.23;11.05;;;;;;;;;;5091960;28;20035;-65
2024/03/05 06:41:58;;;;;;;14.65;10.73;;;;;;;;;;5092372;28;20035;-66
2024/03/05 06:44:25;;;;;;;11.00;8.07;;;;;;;;;;5090974;28;20094;-65
2024/03/05 06:46:54;;;;;;;15.68;11.63;;;;;;;;;;5090301;28;20020;-65
2024/03/05 06:49:27;;;;;;;12.70;9.13;;;;;;;;;;5090412;28;20426;-65
2024/03/05 06:56:39;;;;;;;11.35;8.15;;;;;;;;;;5072077;28;20122;-65
2024/03/05 06:57:25;;;;;;;13.20;9.13;;;;;;;;;;5091956;28;20031;-65
2024/03/05 06:59:51;;;;;;;11.20;8.77;;;;;;;;;;5108853;28;20426;-65
2024/03/05 07:02:16;;;;;;;11.90;8.30;;;;;;;;;;5093820;28;20012;-65
2024/03/05 07:04:43;;;;;;;12.40;9.13;;;;;;;;;;5093690;28;20559;-65
2024/03/05 07:07:08;;;;;;;15.23;9.75;;;;;;;;;;5075951;28;20036;-65
2024/03/05 07:09:34;;;;;;;13.07;8.55;;;;;;;;;;5075372;28;20072;-65
2024/03/05 07:12:01;;;;;;;13.32;9.95;;;;;;;;;;5093714;28;20446;-65
2024/03/05 07:14:27;;;;;;;15.10;10.38;;;;;;;;;;5075585;28;20103;-65
2024/03/05 07:16:53;;;;;;;17.35;11.27;;;;;;;;;;5093626;28;20035;-65
2024/03/05 07:19:20;;;;;;;13.98;10.05;;;;;;;;;;5075519;28;20464;-65
2024/03/05 07:21:47;;;;;;;17.05;11.52;;;;;;;;;;5093604;28;20028;-65
2024/03/05 07:24:13;;;;;;;36.63;15.65;;;;;;;;;;5093607;28;20396;-65
2024/03/05 07:26:39;;;;;;;31.60;17.58;;;;;;;;;;5075421;28;20040;-66
2024/03/05 07:29:04;;;;;;;24.40;13.90;;;;;;;;;;5093570;28;20051;-65
2024/03/05 07:31:30;;;;;;;26.27;17.05;;;;;;;;;;5075695;28;20028;-65
2024/03/05 07:33:55;;;;;;;17.90;11.93;;;;;;;;;;5075264;28;20414;-64
2024/03/05 07:36:21;;;;;;;20.55;13.85;;;;;;;;;;5105511;22;20056;-62
2024/03/05 07:38:46;;;;;;;18.08;12.43;;;;;;;;;;5093485;28;20491;-61
2024/03/05 07:41:12;;;;;;;20.05;12.77;;;;;;;;;;5093479;28;20032;-61
2024/03/05 07:43:48;;;;;;;21.58;13.85;;;;;;;;;;5101796;22;20040;-62
2024/03/05 07:46:13;;;;;;;23.02;14.23;;;;;;;;;;5111319;22;20048;-64
2024/03/05 07:48:39;;;;;;;28.67;16.48;;;;;;;;;;5093436;28;20540;-64
2024/03/05 07:51:04;;;;;;;29.13;16.20;;;;;;;;;;5093763;28;20127;-65
2024/03/05 07:53:30;;;;;;;17.17;10.77;;;;;;;;;;5097263;28;20467;-65
2024/03/05 07:55:57;;;;;;;15.65;9.30;;;;;;;;;;5097675;28;20099;-65
2024/03/05 07:58:24;;;;;;;14.68;10.75;;;;;;;;;;5097279;28;20032;-64
2024/03/05 08:00:49;;;;;;;15.80;11.23;;;;;;;;;;5079055;28;20031;-65
2024/03/05 08:03:14;;;;;;;15.65;10.68;;;;;;;;;;5078959;28;20503;-65
2024/03/05 08:05:41;;;;;;;16.35;11.32;;;;;;;;;;5078954;28;20032;-65
2024/03/05 08:08:07;;;;;;;17.38;11.55;;;;;;;;;;5079303;28;20036;-65
2024/03/05 08:10:34;;;;;;;17.67;11.48;;;;;;;;;;5097332;28;20039;-65
2024/03/05 08:13:01;;;;;;;21.17;14.35;;;;;;;;;;5097216;28;20032;-65
2024/03/05 08:15:27;;;;;;;17.33;11.40;;;;;;;;;;5078758;28;20422;-65
2024/03/05 08:17:52;;;;;;;15.73;10.90;;;;;;;;;;5096950;28;20467;-65
2024/03/05 08:20:19;;;;;;;15.07;10.95;;;;;;;;;;5078669;28;20023;-65
2024/03/05 08:22:46;;;;;;;20.08;13.13;;;;;;;;;;5096786;28;20063;-65
2024/03/05 08:25:15;;;;;;;19.52;12.48;;;;;;;;;;5097026;28;20048;-65
2024/03/05 08:27:41;;;;;;;24.63;14.65;;;;;;;;;;5078511;28;20464;-65
2024/03/05 08:30:08;;;;;;;16.00;11.13;;;;;;;;;;5096964;28;20028;-65
2024/03/05 08:32:37;;;;;;;17.25;11.90;;;;;;;;;;5096843;28;20016;-65
2024/03/05 08:35:03;;;;;;;23.52;15.27;;;;;;;;;;5078398;28;20047;-65
2024/03/05 08:37:28;;;;;;;20.88;13.38;;;;;;;;;;5096568;28;20024;-65
2024/03/05 08:39:54;;;;;;;20.02;13.60;;;;;;;;;;5096497;28;20043;-65
2024/03/05 08:42:19;;;;;;;16.92;11.02;;;;;;;;;;5096420;28;20013;-65
2024/03/05 08:44:46;;;;;;;25.48;16.35;;;;;;;;;;5106905;22;20052;-61
2024/03/05 08:47:13;;;;;;;22.38;14.38;;;;;;;;;;5078592;28;20036;-64
2024/03/05 08:49:38;;;;;;;19.60;12.23;;;;;;;;;;5096888;28;20024;-65
2024/03/05 08:52:06;;;;;;;22.38;14.52;;;;;;;;;;5096495;28;20464;-65
2024/03/05 08:54:32;;;;;;;23.17;12.15;;;;;;;;;;5096413;28;20040;-65
2024/03/05 08:56:58;;;;;;;16.95;11.40;;;;;;;;;;5096762;28;20107;-65
2024/03/05 08:59:25;;;;;;;19.52;13.13;;;;;;;;;;5096687;28;20012;-65
2024/03/05 09:01:53;;;;;;;18.67;11.50;;;;;;;;;;5096288;28;20020;-65
2024/03/05 09:04:25;;;;;;;18.48;12.32;;;;;;;;;;5095826;28;20467;-65
2024/03/05 09:06:50;;;;;;;17.70;11.25;;;;;;;;;;5095968;28;20032;-65
2024/03/05 09:09:16;;;;;;;16.75;11.27;;;;;;;;;;5095029;28;20043;-65
2024/03/05 09:11:42;;;;;;;22.42;14.88;;;;;;;;;;5077729;28;20043;-65
2024/03/05 09:14:08;;;;;;;28.38;19.13;;;;;;;;;;5095763;28;20483;-65
2024/03/05 09:16:34;;;;;;;21.50;14.50;;;;;;;;;;5096337;28;20487;-65
2024/03/05 09:19:00;;;;;;;26.35;16.33;;;;;;;;;;5095724;28;20020;-65
2024/03/05 09:21:25;;;;;;;27.77;16.95;;;;;;;;;;5096245;28;20020;-65
2024/03/05 09:23:51;;;;;;;26.73;17.45;;;;;;;;;;5095926;28;20430;-65
2024/03/05 09:26:16;;;;;;;22.27;15.18;;;;;;;;;;5095569;28;20031;-65
2024/03/05 09:28:42;;;;;;;19.90;13.00;;;;;;;;;;5077448;28;20028;-65
2024/03/05 09:31:07;;;;;;;25.25;15.88;;;;;;;;;;5096059;28;20115;-65
2024/03/05 09:33:33;;;;;;;23.00;16.55;;;;;;;;;;5095366;28;20444;-65
2024/03/05 09:35:58;;;;;;;19.08;13.05;;;;;;;;;;5095659;28;20024;-65
2024/03/05 09:38:26;;;;;;;18.85;12.07;;;;;;;;;;5095600;28;20036;-65
2024/03/05 09:40:53;;;;;;;18.42;12.38;;;;;;;;;;5095572;28;20020;-65
2024/03/05 09:43:19;;;;;;;16.60;11.73;;;;;;;;;;5095256;28;20411;-64
2024/03/05 09:45:47;;;;;;;18.70;12.13;;;;;;;;;;5093973;28;20082;-61
2024/03/05 09:48:17;;;;;;;16.45;11.27;;;;;;;;;;5060382;28;20032;-61
2024/03/05 09:50:43;;;;;;;16.23;10.48;;;;;;;;;;5095393;28;20028;-62
2024/03/05 09:53:12;;;;;;;17.15;11.30;;;;;;;;;;5107923;22;20185;-61
2024/03/05 09:55:37;;;;;;;15.85;11.75;;;;;;;;;;5077735;28;20547;-61
2024/03/05 09:58:08;;;;;;;16.02;11.45;;;;;;;;;;5094955;28;20172;-61
2024/03/05 10:00:37;;;;;;;16.27;12.27;;;;;;;;;;5093642;28;20040;-61
2024/03/05 10:05:46;;;;;;;25.83;15.52;;;;;;;;;;5113742;22;20036;-63
2024/03/05 10:08:11;;;;;;;19.60;14.15;;;;;;;;;;5094801;28;20028;-65
2024/03/05 10:10:37;;;;;;;18.00;12.00;;;;;;;;;;5095332;28;20032;-65
2024/03/05 10:13:02;;;;;;;17.50;13.15;;;;;;;;;;5093373;28;20055;-65
2024/03/05 10:15:28;;;;;;;21.83;16.08;;;;;;;;;;5094048;28;20081;-65
2024/03/05 10:17:54;;;;;;;15.63;12.00;;;;;;;;;;5095174;28;20091;-65
2024/03/05 10:20:22;;;;;;;18.65;12.90;;;;;;;;;;5093410;28;20024;-65
2024/03/05 10:22:51;;;;;;;20.40;14.02;;;;;;;;;;5076347;28;20028;-65
2024/03/05 10:25:17;;;;;;;18.40;12.98;;;;;;;;;;5076319;28;20069;-65
2024/03/05 10:27:45;;;;;;;17.90;13.25;;;;;;;;;;5094426;28;20023;-65
2024/03/05 10:30:45;;;;;;;17.45;12.85;;;;;;;;;;5094667;28;20111;-65
2024/03/05 10:33:12;;;;;;;21.33;14.55;;;;;;;;;;5051690;28;20051;-65
2024/03/05 10:35:38;;;;;;;18.88;14.52;;;;;;;;;;5076758;28;20093;-65
2024/03/05 10:38:12;;;;;;;16.55;12.48;;;;;;;;;;5094286;28;20471;-64
2024/03/05 10:40:39;;;;;;;14.90;11.43;;;;;;;;;;5092923;28;20395;-65
2024/03/05 10:43:05;;;;;;;18.25;12.52;;;;;;;;;;5092898;28;20036;-65
2024/03/05 10:45:38;;;;;;;15.40;12.23;;;;;;;;;;5094158;28;20020;-65
2024/03/05 10:48:03;;;;;;;16.35;12.23;;;;;;;;;;5094647;28;20036;-61
2024/03/05 10:50:29;;;;;;;14.65;10.70;;;;;;;;;;5092734;28;20023;-61
2024/03/05 10:52:55;;;;;;;19.05;14.27;;;;;;;;;;5092799;28;20024;-62
2024/03/05 10:55:22;;;;;;;15.98;11.95;;;;;;;;;;5092715;28;20050;-61
2024/03/05 11:00:35;;;;;;;14.20;11.05;;;;;;;;;;5092663;28;20178;-61
2024/03/05 11:03:11;;;;;;;13.82;10.18;;;;;;;;;;5093883;28;20589;-61
2024/03/05 11:05:45;;;;;;;13.52;10.63;;;;;;;;;;5092452;28;20052;-61
2024/03/05 11:08:12;;;;;;;12.73;10.60;;;;;;;;;;5093811;28;20024;-61
2024/03/05 11:10:39;;;;;;;14.77;10.65;;;;;;;;;;5075704;28;20038;-61
2024/03/05 11:13:05;;;;;;;16.85;13.15;;;;;;;;;;5075647;28;20113;-61
2024/03/05 11:15:30;;;;;;;15.60;12.27;;;;;;;;;;5094055;28;20074;-61
2024/03/05 11:17:57;;;;;;;14.80;10.80;;;;;;;;;;5093970;28;20028;-61
2024/03/05 11:20:42;;;;;;;15.85;11.50;;;;;;;;;;5093713;28;20034;-61
2024/03/05 11:23:11;;;;;;;19.75;15.20;;;;;;;;;;5093926;28;20034;-60
2024/03/05 11:25:40;;;;;;;19.73;15.30;;;;;;;;;;5094948;28;20044;-61
2024/03/05 11:28:06;;;;;;;19.60;14.70;;;;;;;;;;5098435;28;20426;-61
2024/03/05 11:30:31;;;;;;;19.55;14.30;;;;;;;;;;5080471;28;20299;-61
2024/03/05 11:33:08;;;;;;;27.13;19.25;;;;;;;;;;5098278;28;20059;-61
2024/03/05 11:35:36;;;;;;;20.08;14.45;;;;;;;;;;5097736;28;20119;-61
2024/03/05 11:38:01;;;;;;;13.07;10.60;;;;;;;;;;5096544;28;20035;-61
2024/03/05 11:40:35;;;;;;;11.82;10.07;;;;;;;;;;5080268;28;20024;-61
2024/03/05 11:43:01;;;;;;;13.95;10.63;;;;;;;;;;5098166;28;20068;-61
2024/03/05 11:45:46;;;;;;;12.23;10.43;;;;;;;;;;5096286;28;20070;-61
2024/03/05 11:48:15;;;;;;;14.00;10.02;;;;;;;;;;5079042;28;20039;-61
2024/03/05 11:50:41;;;;;;;11.50;9.57;;;;;;;;;;5126775;22;20070;-68
2024/03/05 11:53:08;;;;;;;14.27;9.82;;;;;;;;;;5097803;28;20048;-61
2024/03/05 11:55:33;;;;;;;11.93;9.50;;;;;;;;;;5097505;28;20075;-61
2024/03/05 11:57:59;;;;;;;8.30;7.43;;;;;;;;;;5097606;28;20056;-61
2024/03/05 12:00:26;;;;;;;11.13;9.25;;;;;;;;;;5097620;28;20048;-61
2024/03/05 12:02:58;;;;;;;11.65;8.77;;;;;;;;;;5097500;28;20455;-61
2024/03/05 12:05:24;;;;;;;10.43;8.30;;;;;;;;;;5079453;28;20027;-61
2024/03/05 12:07:56;;;;;;;9.57;8.05;;;;;;;;;;5078902;28;20386;-61
2024/03/05 12:10:26;;;;;;;14.73;10.48;;;;;;;;;;5078926;28;20031;-61
2024/03/05 12:12:51;;;;;;;11.32;8.07;;;;;;;;;;5085891;22;20431;-64
2024/03/05 12:15:49;;;;;;;8.65;7.65;;;;;;;;;;5094869;22;20043;-90
2024/03/05 12:18:17;;;;;;;8.63;7.55;;;;;;;;;;5075252;28;20044;-61
2024/03/05 12:20:42;;;;;;;8.85;7.50;;;;;;;;;;5076560;28;20048;-61
2024/03/05 12:23:19;;;;;;;7.68;6.90;;;;;;;;;;5084669;22;20460;-61
2024/03/05 12:25:46;;;;;;;8.40;7.57;;;;;;;;;;5071382;22;1174021;-61
2024/03/05 12:28:12;;;;;;;8.13;7.30;;;;;;;;;;5056426;28;20025;-61
2024/03/05 12:30:37;;;;;;;7.18;6.05;;;;;;;;;;5056951;28;20021;-61
2024/03/05 12:33:04;;;;;;;9.43;7.40;;;;;;;;;;5056605;28;20103;-61
2024/03/05 12:35:30;;;;;;;7.30;6.40;;;;;;;;;;5056869;28;20063;-61
2024/03/05 12:38:01;;;;;;;8.35;6.25;;;;;;;;;;5055909;28;20032;-61
2024/03/05 12:40:30;;;;;;;8.45;6.95;;;;;;;;;;5056204;28;20035;-61
2024/03/05 12:43:04;;;;;;;9.77;7.30;;;;;;;;;;5056454;28;20029;-61
2024/03/05 12:45:31;;;;;;;9.27;7.75;;;;;;;;;;5056391;28;20025;-61
2024/03/05 12:48:00;;;;;;;7.68;6.80;;;;;;;;;;5038186;28;20460;-61
2024/03/05 12:50:25;;;;;;;7.63;6.70;;;;;;;;;;5056079;28;20057;-62
2024/03/05 12:52:59;;;;;;;10.73;7.65;;;;;;;;;;5038201;28;20496;-61
2024/03/05 12:55:25;;;;;;;11.05;8.45;;;;;;;;;;5056525;28;20029;-60
2024/03/05 12:57:50;;;;;;;7.40;6.57;;;;;;;;;;5038047;28;20039;-61
2024/03/05 13:00:16;;;;;;;8.60;6.80;;;;;;;;;;5056187;28;20021;-61
2024/03/05 13:02:41;;;;;;;8.50;7.20;;;;;;;;;;5021441;28;20115;-61
2024/03/05 13:05:08;;;;;;;11.95;8.70;;;;;;;;;;5056051;28;20521;-61
2024/03/05 13:07:34;;;;;;;8.88;7.38;;;;;;;;;;5037903;28;20028;-61
2024/03/05 13:09:59;;;;;;;11.68;8.85;;;;;;;;;;5055997;28;20021;-61
2024/03/05 13:12:25;;;;;;;12.50;10.10;;;;;;;;;;5037785;28;20496;-61
2024/03/05 13:14:50;;;;;;;9.52;8.07;;;;;;;;;;5055809;28;20075;-61
2024/03/05 13:17:15;;;;;;;9.63;8.07;;;;;;;;;;5038074;28;20025;-61
2024/03/05 13:19:41;;;;;;;16.52;11.40;;;;;;;;;;5055489;28;20025;-61
2024/03/05 13:22:06;;;;;;;15.23;10.93;;;;;;;;;;5056039;28;20029;-62
2024/03/05 13:24:32;;;;;;;14.70;10.25;;;;;;;;;;5055452;28;20075;-61
2024/03/05 13:26:59;;;;;;;14.90;10.23;;;;;;;;;;5037910;28;20044;-61
2024/03/05 13:29:24;;;;;;;11.07;8.60;;;;;;;;;;5055327;28;20035;-61
2024/03/05 13:31:50;;;;;;;14.27;10.70;;;;;;;;;;5055535;28;20037;-61
2024/03/05 13:34:19;;;;;;;26.85;13.90;;;;;;;;;;5054990;28;20024;-61
2024/03/05 13:36:46;;;;;;;42.92;21.45;;;;;;;;;;5055441;28;20040;-61
2024/03/05 13:39:12;;;;;;;69.70;30.15;;;;;;;;;;5053707;28;20021;-61
2024/03/05 13:41:43;;;;;;;30.27;16.98;;;;;;;;;;5055363;28;20028;-60
2024/03/05 13:44:09;;;;;;;38.33;23.17;;;;;;;;;;5054945;28;20040;-60
2024/03/05 13:46:37;;;;;;;20.35;15.35;;;;;;;;;;5037449;28;20021;-60
2024/03/05 13:49:23;;;;;;;17.67;14.18;;;;;;;;;;5069307;28;20037;-60
2024/03/05 13:51:49;;;;;;;20.05;16.27;;;;;;;;;;5054905;28;20029;-62
2024/03/05 13:54:14;;;;;;;16.13;13.63;;;;;;;;;;5055366;28;20028;-61
2024/03/05 13:56:42;;;;;;;10.25;9.00;;;;;;;;;;5036963;28;20029;-62
2024/03/05 13:59:09;;;;;;;12.27;10.13;;;;;;;;;;5037574;28;20376;-59
2024/03/05 14:01:35;;;;;;;9.75;8.10;;;;;;;;;;5054545;28;20057;-61
2024/03/05 14:04:02;;;;;;;7.63;6.20;;;;;;;;;;5055136;28;20056;-61
2024/03/05 14:06:27;;;;;;;10.00;8.43;;;;;;;;;;5036755;28;20380;-61
2024/03/05 14:08:56;;;;;;;12.55;11.23;;;;;;;;;;5054944;28;20108;-61
2024/03/05 14:11:22;;;;;;;13.27;10.43;;;;;;;;;;5053895;28;20033;-61
2024/03/05 14:13:47;;;;;;;8.55;7.65;;;;;;;;;;5053214;28;20033;-61
2024/03/05 14:16:13;;;;;;;11.98;8.70;;;;;;;;;;5053216;28;20104;-61
2024/03/05 14:18:45;;;;;;;9.70;8.13;;;;;;;;;;5053038;28;20029;-61
2024/03/05 14:21:11;;;;;;;9.10;8.20;;;;;;;;;;5053300;28;20032;-61
2024/03/05 14:23:37;;;;;;;13.05;9.65;;;;;;;;;;5054084;28;20063;-60
2024/03/05 14:26:04;;;;;;;13.00;9.80;;;;;;;;;;5052922;28;20064;-61
2024/03/05 14:28:32;;;;;;;12.15;9.02;;;;;;;;;;5054361;28;20493;-61
2024/03/05 14:30:57;;;;;;;14.57;10.30;;;;;;;;;;5054412;28;20028;-61
2024/03/05 14:33:23;;;;;;;10.38;9.30;;;;;;;;;;5053718;28;20028;-61
2024/03/05 14:35:49;;;;;;;11.52;10.07;;;;;;;;;;5053726;28;20107;-61
2024/03/05 14:38:16;;;;;;;10.93;9.27;;;;;;;;;;5054765;28;20033;-62
2024/03/05 14:40:43;;;;;;;14.80;10.32;;;;;;;;;;5036648;28;20354;-62